createdAt,value
2018-12-03T00:05:16.531Z,89.54
2018-12-03T00:07:46.797Z,89.23
2018-12-03T00:10:17.010Z,88.87
2018-12-03T00:13:26.254Z,88.57
2018-12-03T00:16:07.302Z,88.49
2018-12-03T00:19:16.581Z,88.58
2018-12-03T00:28:13.900Z,88.36
2018-12-03T00:30:43.880Z,88.37
2018-12-03T00:33:53.124Z,88.38
2018-12-03T00:39:35.837Z,88.42
2018-12-03T00:51:14.388Z,89.29
2018-12-03T00:53:44.340Z,89.24
2018-12-03T00:56:53.494Z,88.78
2018-12-03T01:02:49.408Z,88.17
2018-12-03T01:05:19.658Z,88.20
2018-12-03T01:16:43.938Z,88.57
2018-12-03T01:19:53.140Z,88.85
2018-12-03T01:22:23.218Z,88.93
2018-12-03T01:24:53.168Z,88.89
2018-12-03T01:27:23.220Z,89.02
2018-12-03T01:29:53.142Z,89.14
2018-12-03T01:32:23.368Z,89.32
2018-12-03T01:35:32.620Z,89.53
2018-12-03T01:38:02.613Z,89.47
2018-12-03T01:40:32.616Z,89.35
2018-12-03T01:43:41.791Z,89.45
2018-12-03T01:46:11.817Z,89.81
2018-12-03T01:49:20.973Z,89.66
2018-12-03T01:54:57.923Z,89.97
2018-12-03T02:03:44.533Z,90.15
2018-12-03T02:06:44.835Z,90.15
2018-12-03T02:12:10.542Z,90.30
2018-12-03T02:14:40.536Z,90.10
2018-12-03T02:17:10.535Z,90.19
2018-12-03T02:19:40.680Z,89.99
2018-12-03T02:22:10.643Z,89.83
2018-12-03T02:25:19.872Z,89.74
2018-12-03T02:27:49.846Z,89.76
2018-12-03T02:33:34.143Z,89.66
2018-12-03T02:39:29.338Z,89.49
2018-12-03T02:41:59.525Z,89.56
2018-12-03T02:47:25.096Z,89.52
2018-12-03T02:49:55.014Z,89.44
2018-12-03T02:53:04.137Z,89.27
2018-12-03T02:55:34.296Z,89.22
2018-12-03T03:01:00.319Z,89.55
2018-12-03T03:06:50.779Z,89.25
2018-12-03T03:12:54.835Z,89.20
2018-12-03T03:15:24.833Z,88.83
2018-12-03T03:23:27.385Z,89.19
2018-12-03T03:26:16.444Z,89.03
2018-12-03T03:28:46.392Z,88.43
2018-12-03T03:31:16.393Z,88.31
2018-12-03T03:33:46.385Z,88.14
2018-12-03T03:36:55.673Z,88.27
2018-12-03T03:39:44.394Z,88.28
2018-12-03T03:42:53.688Z,88.93
2018-12-03T03:45:25.015Z,89.06
2018-12-03T03:47:54.963Z,88.86
2018-12-03T03:50:25.255Z,89.03
2018-12-03T03:52:55.302Z,89.36
2018-12-03T03:56:04.487Z,89.43
2018-12-03T04:04:32.814Z,90.57
2018-12-03T04:10:31.205Z,90.41
2018-12-03T04:16:27.419Z,90.87
2018-12-03T04:30:50.907Z,91.73
2018-12-03T04:39:37.488Z,92.12
2018-12-03T04:42:19.101Z,92.09
2018-12-03T04:45:28.387Z,92.23
2018-12-03T04:51:13.594Z,91.81
2018-12-03T04:53:43.603Z,91.89
2018-12-03T04:56:52.856Z,91.72
2018-12-03T05:02:24.452Z,91.17
2018-12-03T05:05:33.567Z,91.35
2018-12-03T05:08:42.848Z,91.21
2018-12-03T05:11:13.036Z,91.01
2018-12-03T05:13:43.040Z,90.98
2018-12-03T05:16:13.038Z,90.67
2018-12-03T05:19:22.298Z,90.43
2018-12-03T05:22:10.906Z,90.49
2018-12-03T05:24:59.720Z,90.50
2018-12-03T05:27:29.988Z,90.64
2018-12-03T05:30:00.020Z,90.40
2018-12-03T05:33:09.292Z,90.66
2018-12-03T05:39:05.270Z,90.64
2018-12-03T05:41:35.352Z,90.74
2018-12-03T05:44:05.335Z,90.91
2018-12-03T05:49:31.172Z,90.93
2018-12-03T05:54:50.199Z,90.80
2018-12-03T06:03:28.616Z,90.91
2018-12-03T06:05:58.580Z,90.86
2018-12-03T06:14:21.347Z,90.72
2018-12-03T06:16:51.316Z,90.99
2018-12-03T06:19:21.246Z,90.87
2018-12-03T06:21:55.275Z,90.70
2018-12-03T06:24:25.526Z,90.44
2018-12-03T06:26:55.437Z,90.44
2018-12-03T06:29:25.429Z,90.59
2018-12-03T06:32:14.212Z,90.64
2018-12-03T06:34:44.286Z,90.45
2018-12-03T06:40:30.290Z,90.67
2018-12-03T06:43:00.255Z,90.58
2018-12-03T06:45:30.744Z,90.39
2018-12-03T06:51:55.447Z,90.01
2018-12-03T06:57:21.078Z,89.85
2018-12-03T07:09:09.441Z,89.69
2018-12-03T07:17:02.413Z,89.97
2018-12-03T07:20:11.703Z,89.88
2018-12-03T07:23:00.644Z,89.82
2018-12-03T07:31:58.678Z,89.65
2018-12-03T07:34:28.630Z,89.74
2018-12-03T07:36:58.593Z,89.68
2018-12-03T07:39:28.949Z,89.40
2018-12-03T07:42:38.184Z,89.46
2018-12-03T07:45:31.859Z,89.37
2018-12-03T07:48:02.226Z,89.29
2018-12-03T07:51:11.493Z,89.17
2018-12-03T07:59:59.751Z,89.13
2018-12-03T08:05:32.154Z,89.47
2018-12-03T08:10:52.889Z,89.29
2018-12-03T08:13:22.954Z,89.28
2018-12-03T08:15:53.144Z,89.14
2018-12-03T08:18:24.377Z,89.14
2018-12-03T08:21:02.004Z,89.15
2018-12-03T08:23:42.875Z,89.41
2018-12-03T08:32:24.621Z,89.79
2018-12-03T08:34:54.778Z,89.79
2018-12-03T08:40:21.569Z,89.71
2018-12-03T08:42:52.864Z,89.75
2018-12-03T08:45:23.652Z,89.19
2018-12-03T08:47:54.173Z,89.21
2018-12-03T08:53:34.560Z,89.82
2018-12-03T08:58:44.430Z,89.88
2018-12-03T09:01:54.691Z,89.87
2018-12-03T09:04:24.950Z,90.25
2018-12-03T09:06:54.962Z,90.29
2018-12-03T09:12:31.488Z,89.90
2018-12-03T09:18:16.536Z,90.08
2018-12-03T09:20:46.727Z,90.09
2018-12-03T09:23:55.890Z,89.90
2018-12-03T09:26:26.327Z,90.13
2018-12-03T09:28:56.527Z,90.19
2018-12-03T09:34:01.894Z,89.67
2018-12-03T09:37:11.233Z,89.98
2018-12-03T09:43:12.518Z,89.69
2018-12-03T09:48:33.439Z,89.87
2018-12-03T09:51:03.637Z,89.62
2018-12-03T09:54:12.993Z,89.29
2018-12-03T09:56:53.851Z,89.61
2018-12-03T10:00:03.908Z,89.48
2018-12-03T10:08:15.136Z,89.79
2018-12-03T10:11:04.386Z,89.64
2018-12-03T10:14:15.028Z,89.70
2018-12-03T10:23:04.664Z,90.16
2018-12-03T10:25:34.711Z,89.95
2018-12-03T10:28:45.329Z,90.07
2018-12-03T10:31:16.044Z,90.17
2018-12-03T10:33:45.966Z,90.00
2018-12-03T10:36:55.183Z,90.06
2018-12-03T10:42:52.651Z,90.19
2018-12-03T10:45:26.279Z,90.18
2018-12-03T10:51:00.649Z,90.17
2018-12-03T10:53:32.192Z,89.62
2018-12-03T10:56:02.209Z,89.31
2018-12-03T10:59:15.458Z,89.45
2018-12-03T11:05:06.338Z,88.79
2018-12-03T11:13:54.656Z,88.46
2018-12-03T11:16:32.766Z,88.06
2018-12-03T11:19:03.231Z,87.80
2018-12-03T11:21:33.371Z,88.04
2018-12-03T11:24:03.850Z,88.20
2018-12-03T11:26:39.507Z,88.83
2018-12-03T11:29:10.314Z,88.95
2018-12-03T11:31:40.384Z,89.16
2018-12-03T11:34:10.498Z,88.50
2018-12-03T11:36:51.582Z,88.54
2018-12-03T11:39:59.889Z,88.88
2018-12-03T11:42:32.582Z,88.48
2018-12-03T11:45:02.605Z,88.73
2018-12-03T11:47:32.891Z,88.79
2018-12-03T11:50:02.820Z,88.96
2018-12-03T11:52:32.826Z,89.09
2018-12-03T11:55:02.986Z,88.79
2018-12-03T11:57:34.576Z,88.81
2018-12-03T12:00:04.938Z,89.25
2018-12-03T12:03:14.195Z,89.05
2018-12-03T12:05:55.500Z,89.01
2018-12-03T12:08:25.757Z,89.08
2018-12-03T12:14:40.418Z,89.34
2018-12-03T12:17:10.742Z,89.37
2018-12-03T12:20:20.037Z,89.60
2018-12-03T12:23:08.960Z,89.63
2018-12-03T12:26:18.229Z,89.63
2018-12-03T12:28:48.409Z,89.76
2018-12-03T12:31:18.380Z,89.64
2018-12-03T12:36:45.139Z,89.97
2018-12-03T12:42:31.925Z,90.04
2018-12-03T12:45:41.236Z,90.02
2018-12-03T12:57:16.455Z,89.74
2018-12-03T13:03:12.500Z,89.97
2018-12-03T13:11:58.812Z,89.71
2018-12-03T13:15:08.036Z,89.61
2018-12-03T13:17:38.256Z,89.56
2018-12-03T13:23:36.194Z,89.70
2018-12-03T13:38:16.961Z,89.95
2018-12-03T13:40:47.025Z,89.90
2018-12-03T13:43:56.272Z,89.91
2018-12-03T13:47:05.399Z,89.80
2018-12-03T13:50:14.594Z,89.70
2018-12-03T13:53:03.424Z,90.11
2018-12-03T13:55:33.773Z,89.99
2018-12-03T13:58:03.813Z,90.20
2018-12-03T14:01:12.930Z,90.15
2018-12-03T14:03:43.425Z,90.22
2018-12-03T14:06:24.679Z,90.19
2018-12-03T14:09:50.489Z,90.25
2018-12-03T14:12:58.054Z,90.05
2018-12-03T14:16:05.613Z,90.27
2018-12-03T14:19:16.131Z,90.08
2018-12-03T14:22:09.368Z,90.12
2018-12-03T14:25:18.501Z,90.08
2018-12-03T14:27:48.606Z,90.21
2018-12-03T14:30:18.548Z,90.23
2018-12-03T14:38:58.777Z,90.67
2018-12-03T14:41:47.670Z,90.60
2018-12-03T14:44:17.906Z,90.58
2018-12-03T14:50:02.115Z,90.67
2018-12-03T14:52:32.314Z,90.65
2018-12-03T14:58:17.007Z,91.02
2018-12-03T15:00:47.176Z,90.83
2018-12-03T15:03:34.519Z,90.81
2018-12-03T15:06:04.668Z,90.71
2018-12-03T15:14:26.556Z,90.67
2018-12-03T15:32:05.933Z,90.68
2018-12-03T15:34:36.023Z,90.65
2018-12-03T15:37:06.141Z,90.42
2018-12-03T15:40:15.408Z,90.54
2018-12-03T15:45:47.250Z,90.54
2018-12-03T15:48:17.181Z,90.36
2018-12-03T15:52:39.631Z,90.07
2018-12-03T15:55:09.419Z,90.21
2018-12-03T15:57:38.127Z,90.19
2018-12-03T16:00:14.710Z,90.34
2018-12-03T16:02:43.874Z,90.64
2018-12-03T16:05:20.188Z,90.40
2018-12-03T16:07:49.407Z,90.62
2018-12-03T16:10:18.618Z,90.69
2018-12-03T16:12:48.221Z,90.82
2018-12-03T16:15:17.467Z,90.92
2018-12-03T16:17:46.393Z,91.03
2018-12-03T16:20:15.134Z,90.92
2018-12-03T16:22:44.448Z,90.86
2018-12-03T16:25:13.912Z,90.69
2018-12-03T16:27:49.977Z,90.52
2018-12-03T16:30:21.728Z,90.56
2018-12-03T16:32:58.575Z,90.57
2018-12-03T16:35:27.894Z,90.66
2018-12-03T16:37:56.952Z,90.59
2018-12-03T16:40:26.324Z,90.84
2018-12-03T16:42:55.626Z,90.73
2018-12-03T16:45:24.709Z,90.43
2018-12-03T16:47:53.840Z,90.56
2018-12-03T16:50:23.438Z,90.73
2018-12-03T16:52:52.435Z,90.51
2018-12-03T16:55:21.727Z,90.69
2018-12-03T16:57:50.923Z,90.97
2018-12-03T17:00:20.950Z,90.76
2018-12-03T17:02:49.876Z,90.77
2018-12-03T17:05:18.984Z,90.82
2018-12-03T17:07:48.107Z,91.00
2018-12-03T17:10:22.530Z,91.07
2018-12-03T17:12:52.569Z,91.20
2018-12-03T17:15:21.564Z,91.37
2018-12-03T17:17:54.169Z,91.47
2018-12-03T17:20:59.994Z,91.47
2018-12-03T17:24:05.987Z,91.44
2018-12-03T17:26:34.705Z,91.32
2018-12-03T17:29:03.541Z,91.20
2018-12-03T17:31:32.214Z,91.54
2018-12-03T17:34:01.172Z,91.55
2018-12-03T17:36:30.170Z,91.40
2018-12-03T17:38:58.932Z,91.39
2018-12-03T17:41:28.446Z,91.72
2018-12-03T17:43:57.412Z,91.68
2018-12-03T17:46:26.814Z,91.40
2018-12-03T17:48:55.879Z,91.41
2018-12-03T17:51:24.629Z,91.28
2018-12-03T17:53:53.544Z,91.25
2018-12-03T17:56:22.449Z,91.34
2018-12-03T17:58:51.407Z,91.38
2018-12-03T18:01:20.170Z,91.58
2018-12-03T18:03:49.024Z,91.70
2018-12-03T18:06:18.242Z,91.77
2018-12-03T18:08:47.168Z,91.68
2018-12-03T18:11:16.662Z,91.40
2018-12-03T18:13:45.837Z,91.37
2018-12-03T18:16:14.790Z,91.70
2018-12-03T18:18:43.540Z,91.83
2018-12-03T18:21:12.331Z,91.88
2018-12-03T18:23:41.285Z,91.55
2018-12-03T18:26:10.950Z,91.26
2018-12-03T18:28:39.866Z,90.83
2018-12-03T18:31:08.978Z,90.38
2018-12-03T18:33:39.021Z,90.44
2018-12-03T18:36:08.213Z,90.79
2018-12-03T18:38:38.472Z,90.58
2018-12-03T18:41:07.233Z,90.59
2018-12-03T18:43:36.374Z,90.68
2018-12-03T18:46:05.448Z,90.75
2018-12-03T18:48:34.726Z,90.90
2018-12-03T18:51:03.476Z,90.83
2018-12-03T18:53:32.498Z,90.96
2018-12-03T18:56:02.344Z,90.74
2018-12-03T18:58:40.086Z,90.77
2018-12-03T19:01:15.607Z,90.66
2018-12-03T19:03:44.614Z,90.66
2018-12-03T19:06:13.608Z,90.69
2018-12-03T19:08:42.322Z,90.67
2018-12-03T19:11:11.236Z,90.66
2018-12-03T19:13:40.787Z,90.62
2018-12-03T19:16:09.810Z,90.61
2018-12-03T19:18:39.083Z,90.61
2018-12-03T19:21:08.417Z,90.48
2018-12-03T19:23:38.046Z,90.55
2018-12-03T19:26:07.402Z,90.09
2018-12-03T19:28:36.599Z,90.09
2018-12-03T19:31:05.815Z,90.17
2018-12-03T19:33:35.113Z,90.08
2018-12-03T19:36:05.259Z,90.07
2018-12-03T19:38:34.791Z,90.15
2018-12-03T19:41:04.226Z,90.40
2018-12-03T19:43:33.763Z,90.40
2018-12-03T19:46:02.728Z,90.25
2018-12-03T19:48:32.115Z,90.19
2018-12-03T19:51:01.164Z,89.84
2018-12-03T19:53:30.636Z,90.31
2018-12-03T19:56:13.316Z,90.90
2018-12-03T19:58:45.172Z,90.77
2018-12-03T20:01:16.536Z,90.87
2018-12-03T20:03:45.736Z,90.65
2018-12-03T20:06:16.785Z,90.86
2018-12-03T20:08:46.212Z,90.69
2018-12-03T20:11:15.433Z,90.72
2018-12-03T20:13:44.402Z,90.92
2018-12-03T20:16:13.548Z,90.53
2018-12-03T20:18:46.373Z,90.73
2018-12-03T20:21:20.019Z,90.28
2018-12-03T20:23:52.309Z,90.65
2018-12-03T20:26:32.735Z,90.73
2018-12-03T20:29:42.311Z,90.55
2018-12-03T20:32:17.511Z,90.50
2018-12-03T20:34:55.578Z,90.72
2018-12-03T20:37:39.738Z,90.23
2018-12-03T20:40:37.645Z,90.29
2018-12-03T20:43:13.022Z,90.44
2018-12-03T20:46:27.728Z,90.71
2018-12-03T20:49:27.367Z,90.54
2018-12-03T20:52:03.598Z,90.19
2018-12-03T20:54:32.555Z,90.01
2018-12-03T20:57:01.388Z,90.38
2018-12-03T20:59:30.241Z,90.74
2018-12-03T21:01:59.348Z,90.75
2018-12-03T21:04:28.019Z,90.44
2018-12-03T21:06:57.344Z,90.46
2018-12-03T21:09:26.261Z,90.39
2018-12-03T21:11:55.370Z,90.03
2018-12-03T21:14:25.678Z,89.85
2018-12-03T21:16:55.793Z,89.80
2018-12-03T21:19:24.743Z,89.63
2018-12-03T21:21:54.839Z,89.24
2018-12-03T21:24:27.853Z,89.45
2018-12-03T21:26:56.609Z,89.14
2018-12-03T21:29:25.231Z,89.52
2018-12-03T21:31:56.163Z,89.91
2018-12-03T21:34:25.292Z,89.87
2018-12-03T21:36:54.458Z,89.98
2018-12-03T21:39:23.208Z,90.10
2018-12-03T21:41:52.074Z,90.17
2018-12-03T21:44:20.779Z,89.99
2018-12-03T21:46:49.666Z,90.05
2018-12-03T21:49:18.508Z,90.37
2018-12-03T21:51:47.354Z,90.10
2018-12-03T21:54:16.482Z,89.92
2018-12-03T21:56:45.826Z,90.00
2018-12-03T21:59:14.593Z,90.06
2018-12-03T22:01:43.273Z,89.89
2018-12-03T22:04:19.553Z,90.25
2018-12-03T22:06:48.777Z,90.09
2018-12-03T22:09:17.903Z,90.35
2018-12-03T22:11:46.804Z,90.22
2018-12-03T22:14:15.831Z,90.24
2018-12-03T22:16:44.841Z,90.18
2018-12-03T22:19:13.701Z,90.26
2018-12-03T22:21:42.712Z,89.90
2018-12-03T22:24:12.273Z,90.19
2018-12-03T22:26:41.529Z,90.38
2018-12-03T22:29:10.694Z,90.04
2018-12-03T22:31:39.741Z,89.98
2018-12-03T22:34:08.804Z,89.84
2018-12-03T22:36:37.837Z,90.10
2018-12-03T22:39:07.883Z,90.10
2018-12-03T22:41:37.078Z,90.30
2018-12-03T22:44:05.843Z,90.22
2018-12-03T22:46:34.625Z,90.39
2018-12-03T22:49:08.608Z,90.25
2018-12-03T22:51:37.352Z,90.58
2018-12-03T22:54:06.453Z,90.55
2018-12-03T22:56:39.745Z,90.50
2018-12-03T22:59:08.379Z,90.31
2018-12-03T23:01:41.810Z,90.37
2018-12-03T23:04:10.467Z,89.98
2018-12-03T23:06:39.337Z,90.02
2018-12-03T23:09:09.348Z,90.13
2018-12-03T23:11:38.079Z,90.36
2018-12-03T23:14:06.936Z,90.37
2018-12-03T23:16:35.746Z,90.48
2018-12-03T23:19:04.741Z,90.30
2018-12-03T23:21:33.539Z,90.36
2018-12-03T23:24:02.675Z,90.25
2018-12-03T23:26:31.334Z,90.32
2018-12-03T23:29:00.208Z,90.22
2018-12-03T23:31:43.535Z,90.18
2018-12-03T23:34:12.268Z,90.12
2018-12-03T23:36:41.217Z,89.68
2018-12-03T23:39:09.951Z,89.85
2018-12-03T23:41:38.620Z,89.47
2018-12-03T23:44:07.264Z,89.71
2018-12-03T23:46:36.000Z,89.72
2018-12-03T23:49:04.966Z,89.59
2018-12-03T23:51:36.303Z,89.41
2018-12-03T23:54:05.105Z,89.37
2018-12-03T23:56:34.142Z,89.50
2018-12-03T23:59:02.937Z,89.16
